Terminal Aerodrome Forecast
Issued by NWS

Home | Current Version | Previous Version | Text Only | Print | Product List | Glossary On
Versions: 1 2 3 4 5 6 7 8 9 10 11 12
000
FTUS42 KTBW 271735
TAFLAL
TAF
KLAL 271735Z 2718/2818 19008KT P6SM VCSH SCT040 SCT100 BKN250
     FM272000 20006KT P6SM VCTS SCT040CB SCT120 BKN250
     FM280200 VRB03KT P6SM SCT040 BKN250
     FM280600 VRB03KT P6SM SCT250
     FM281500 10005KT P6SM SCT030 SCT250=

USA.gov is the U.S. government's official web portal to all federal, state and local government web resources and services.